Time;durP1;ratioP1;P1;durP2;ratioP2;P2;SDS_P1;SDS_P2;PMS_P1;PMS_P2;Temp;Humidity;BMP_temperature;BMP_pressure;BME280_temperature;BME280_humidity;BME280_pressure;Samples;Min_cycle;Max_cycle;Signal;HPM_P1;HPM_P2
2023/10/06 00:00:47;;;;;;;3.90;1.73;;;12.00;99.90;;;;;;5036970;28;20033;-70
2023/10/06 00:03:14;;;;;;;4.00;1.80;;;12.00;99.90;;;;;;5038687;28;20052;-70
2023/10/06 00:05:49;;;;;;;4.65;1.80;;;12.00;99.90;;;;;;5038205;28;20099;-70
2023/10/06 00:08:31;;;;;;;3.17;1.23;;;12.00;99.90;;;;;;5024490;28;20028;-70
2023/10/06 00:11:10;;;;;;;2.30;1.52;;;11.90;99.90;;;;;;5037792;28;20026;-70
2023/10/06 00:13:37;;;;;;;2.92;1.55;;;11.90;99.90;;;;;;5037954;28;20028;-70
2023/10/06 00:16:07;;;;;;;5.65;1.80;;;11.90;99.90;;;;;;5037683;28;20021;-70
2023/10/06 00:18:36;;;;;;;3.63;1.40;;;11.80;99.90;;;;;;5037941;28;20095;-70
2023/10/06 00:21:13;;;;;;;3.78;1.70;;;11.80;99.90;;;;;;5037640;28;20026;-69
2023/10/06 00:23:42;;;;;;;5.00;1.50;;;11.80;99.90;;;;;;5037914;28;20033;-69
2023/10/06 00:26:12;;;;;;;3.63;1.88;;;11.70;99.90;;;;;;5037597;28;20021;-69
2023/10/06 00:28:39;;;;;;;2.67;1.52;;;11.70;99.90;;;;;;5037449;28;20021;-69
2023/10/06 00:31:11;;;;;;;3.35;1.63;;;11.70;99.90;;;;;;5038107;28;20477;-69
2023/10/06 00:33:37;;;;;;;4.22;1.75;;;11.70;99.90;;;;;;5037745;28;20053;-69
2023/10/06 00:36:14;;;;;;;3.05;1.65;;;11.70;99.90;;;;;;5037312;28;20036;-69
2023/10/06 00:38:50;;;;;;;6.15;1.83;;;11.60;99.90;;;;;;5037836;28;20025;-69
2023/10/06 00:41:17;;;;;;;4.50;1.50;;;11.60;99.90;;;;;;5037232;28;20026;-69
2023/10/06 00:43:44;;;;;;;3.83;1.50;;;11.60;99.90;;;;;;5038393;28;20060;-69
2023/10/06 00:46:10;;;;;;;3.58;1.50;;;11.60;99.90;;;;;;5037246;28;20060;-69
2023/10/06 00:48:40;;;;;;;4.45;1.60;;;11.60;99.90;;;;;;5038140;28;20028;-69
2023/10/06 00:51:25;;;;;;;4.53;1.50;;;11.50;99.90;;;;;;5038182;28;20021;-70
2023/10/06 00:53:56;;;;;;;4.65;1.70;;;11.50;99.90;;;;;;5036679;28;20052;-69
2023/10/06 00:56:23;;;;;;;3.90;1.52;;;11.50;99.90;;;;;;5037583;28;20040;-70
2023/10/06 00:58:49;;;;;;;3.30;1.63;;;11.40;99.90;;;;;;5036590;28;20113;-70
2023/10/06 01:01:18;;;;;;;4.10;1.58;;;11.40;99.90;;;;;;5037626;28;20068;-70
2023/10/06 01:03:48;;;;;;;3.35;1.48;;;11.40;99.90;;;;;;5037222;28;20045;-70
2023/10/06 01:06:15;;;;;;;3.30;1.80;;;11.40;99.90;;;;;;5036981;28;20560;-70
2023/10/06 01:08:52;;;;;;;2.42;1.42;;;11.40;99.90;;;;;;5037747;28;20025;-70
2023/10/06 01:11:20;;;;;;;3.75;1.63;;;11.40;99.90;;;;;;5037311;28;20032;-69
2023/10/06 01:14:21;;;;;;;3.67;1.40;;;11.40;99.90;;;;;;5037383;28;20029;-69
2023/10/06 01:16:38;;;;;;;3.30;1.48;;;11.30;99.90;;;;;;5037221;28;20120;-70
2023/10/06 01:19:15;;;;;;;3.97;1.88;;;11.30;99.90;;;;;;5037673;28;20068;-70
2023/10/06 01:21:47;;;;;;;4.03;1.52;;;11.30;99.90;;;;;;5037213;28;20045;-70
2023/10/06 01:24:24;;;;;;;4.03;1.52;;;11.20;99.90;;;;;;5037823;28;20018;-70
2023/10/06 01:26:54;;;;;;;4.72;1.40;;;11.20;99.90;;;;;;5037190;28;20040;-70
2023/10/06 01:29:26;;;;;;;3.95;1.60;;;11.20;99.90;;;;;;5037004;28;20053;-70
2023/10/06 01:31:51;;;;;;;3.22;1.40;;;11.20;99.90;;;;;;5036571;28;20040;-70
2023/10/06 01:34:18;;;;;;;2.75;1.30;;;11.10;99.90;;;;;;5036873;28;20109;-70
2023/10/06 01:36:45;;;;;;;4.13;1.60;;;11.10;99.90;;;;;;5035585;28;20034;-70
2023/10/06 01:39:17;;;;;;;2.95;1.35;;;11.10;99.90;;;;;;5037398;28;20026;-70
2023/10/06 01:41:46;;;;;;;3.42;1.40;;;11.10;99.90;;;;;;5034479;28;20108;-70
2023/10/06 01:44:16;;;;;;;2.45;1.25;;;11.10;99.90;;;;;;5035820;28;20021;-70
2023/10/06 01:46:43;;;;;;;5.03;1.63;;;11.10;99.90;;;;;;5037378;28;20028;-71
2023/10/06 01:49:12;;;;;;;3.28;1.60;;;11.00;99.90;;;;;;5036945;28;20069;-70
2023/10/06 01:51:38;;;;;;;4.47;1.70;;;11.00;99.90;;;;;;5036890;28;20072;-70
2023/10/06 01:54:12;;;;;;;3.15;1.60;;;11.00;99.90;;;;;;5037478;28;20022;-70
2023/10/06 01:56:44;;;;;;;2.38;1.50;;;11.00;99.90;;;;;;5036715;28;20068;-71
2023/10/06 01:59:16;;;;;;;3.35;1.33;;;11.00;99.90;;;;;;5037016;28;20522;-70
2023/10/06 02:01:42;;;;;;;3.88;1.40;;;11.00;99.90;;;;;;5037170;28;20022;-70
2023/10/06 02:04:14;;;;;;;3.08;1.50;;;10.90;99.90;;;;;;5034933;28;20018;-70
2023/10/06 02:06:44;;;;;;;3.15;1.33;;;10.90;99.90;;;;;;5036450;28;20026;-70
2023/10/06 02:09:18;;;;;;;3.92;1.42;;;10.90;99.90;;;;;;5036162;28;20032;-70
2023/10/06 02:11:44;;;;;;;;;;;10.90;99.90;;;;;;5035525;28;20034;-70
2023/10/06 02:14:17;;;;;;;4.30;1.45;;;10.90;99.90;;;;;;5036843;28;19913;-70
2023/10/06 02:16:46;;;;;;;2.28;1.27;;;10.90;99.90;;;;;;5038917;28;20112;-70
2023/10/06 02:19:18;;;;;;;2.05;1.20;;;10.90;99.90;;;;;;5040609;28;20033;-70
2023/10/06 02:21:45;;;;;;;3.33;1.50;;;10.90;99.90;;;;;;5039032;28;20540;-70
2023/10/06 02:24:16;;;;;;;3.42;1.38;;;10.80;99.90;;;;;;5039641;28;20033;-70
2023/10/06 02:26:57;;;;;;;3.88;1.35;;;10.80;99.90;;;;;;5040450;28;20017;-70
2023/10/06 02:29:23;;;;;;;2.95;1.33;;;10.80;99.90;;;;;;5039140;28;20422;-70
2023/10/06 02:32:01;;;;;;;3.92;1.20;;;10.70;99.90;;;;;;5040440;28;20053;-70
2023/10/06 02:34:30;;;;;;;2.45;1.42;;;10.70;99.90;;;;;;5040325;28;20025;-69
2023/10/06 02:36:57;;;;;;;2.47;1.27;;;10.70;99.90;;;;;;5040751;28;20048;-70
2023/10/06 02:39:26;;;;;;;3.95;1.58;;;10.70;99.90;;;;;;5040864;28;20030;-70
2023/10/06 02:41:57;;;;;;;4.20;1.77;;;10.70;99.90;;;;;;5040166;28;20020;-69
2023/10/06 02:44:26;;;;;;;3.08;1.50;;;10.70;99.90;;;;;;5040790;28;20021;-69
2023/10/06 02:46:52;;;;;;;3.80;1.50;;;10.60;99.90;;;;;;5040091;28;20018;-70
2023/10/06 02:49:31;;;;;;;3.05;1.40;;;10.60;99.90;;;;;;5040332;28;20478;-70
2023/10/06 02:52:00;;;;;;;3.83;1.80;;;10.60;99.90;;;;;;5039959;28;20045;-70
2023/10/06 02:54:30;;;;;;;4.68;1.80;;;10.60;99.90;;;;;;5039804;28;20024;-70
2023/10/06 02:56:56;;;;;;;3.80;1.80;;;10.60;99.90;;;;;;5040049;28;20025;-71
2023/10/06 02:59:25;;;;;;;3.97;1.48;;;10.50;99.90;;;;;;5040229;28;20042;-70
2023/10/06 03:01:55;;;;;;;3.75;1.30;;;10.50;99.90;;;;;;5040195;28;20029;-71
2023/10/06 03:04:24;;;;;;;3.22;1.20;;;10.50;99.90;;;;;;5039453;28;20032;-70
2023/10/06 03:06:53;;;;;;;2.78;1.50;;;10.50;99.90;;;;;;5039876;28;20024;-70
2023/10/06 03:10:08;;;;;;;3.88;1.60;;;10.50;99.90;;;;;;5039847;28;20181;-69
2023/10/06 03:12:13;;;;;;;3.80;1.23;;;10.50;99.90;;;;;;5038206;28;20095;-69
2023/10/06 03:14:39;;;;;;;4.78;1.63;;;10.50;99.90;;;;;;5039824;28;20036;-69
2023/10/06 03:17:10;;;;;;;3.88;1.90;;;10.40;99.90;;;;;;5038681;28;20379;-69
2023/10/06 03:19:40;;;;;;;2.88;1.50;;;10.40;99.90;;;;;;5039678;28;20022;-69
2023/10/06 03:22:12;;;;;;;3.72;1.50;;;10.40;99.90;;;;;;5038122;28;20449;-69
2023/10/06 03:24:53;;;;;;;3.97;1.58;;;10.40;99.90;;;;;;5040211;28;20028;-69
2023/10/06 03:27:18;;;;;;;4.97;1.30;;;10.40;99.90;;;;;;5037869;28;20021;-69
2023/10/06 03:29:54;;;;;;;3.42;1.33;;;10.40;99.90;;;;;;5038180;28;20055;-69
2023/10/06 03:32:28;;;;;;;3.28;1.73;;;10.40;99.90;;;;;;5039292;28;20025;-70
2023/10/06 03:34:57;;;;;;;2.85;1.67;;;10.30;99.90;;;;;;5037806;28;20071;-70
2023/10/06 03:37:34;;;;;;;3.60;1.60;;;10.30;99.90;;;;;;5039251;28;20026;-69
2023/10/06 03:40:19;;;;;;;5.03;1.80;;;10.30;99.90;;;;;;5036860;28;20045;-70
2023/10/06 03:42:47;;;;;;;3.85;1.60;;;10.30;99.90;;;;;;5038101;28;20024;-69
2023/10/06 03:45:27;;;;;;;2.45;1.40;;;10.30;99.90;;;;;;5038453;28;20478;-69
2023/10/06 03:47:54;;;;;;;3.50;1.77;;;10.20;99.90;;;;;;5036923;28;20018;-70
2023/10/06 03:50:20;;;;;;;3.70;1.38;;;10.20;99.90;;;;;;5038271;28;20030;-69
2023/10/06 03:52:49;;;;;;;2.88;1.60;;;10.20;99.90;;;;;;5038405;28;20518;-70
2023/10/06 03:55:14;;;;;;;3.88;1.70;;;10.20;99.90;;;;;;5036900;28;20091;-70
2023/10/06 03:57:40;;;;;;;4.10;1.70;;;10.20;99.90;;;;;;5037693;28;20026;-71
2023/10/06 04:00:08;;;;;;;3.45;1.60;;;10.20;99.90;;;;;;5038498;28;20033;-71
2023/10/06 04:02:38;;;;;;;3.00;1.30;;;10.10;99.90;;;;;;5038220;28;20022;-71
2023/10/06 04:05:07;;;;;;;5.22;1.55;;;10.10;99.90;;;;;;5037627;28;20550;-71
2023/10/06 04:07:33;;;;;;;3.65;1.63;;;10.10;99.90;;;;;;5038167;28;20013;-70
2023/10/06 04:10:02;;;;;;;3.42;1.50;;;10.10;99.90;;;;;;5038096;28;20036;-70
2023/10/06 04:12:29;;;;;;;3.25;1.70;;;10.10;99.90;;;;;;5037869;28;20049;-71
2023/10/06 04:14:54;;;;;;;4.95;1.50;;;10.10;99.90;;;;;;5036879;28;20036;-71
2023/10/06 04:17:21;;;;;;;4.63;1.73;;;10.10;99.90;;;;;;5037870;28;20026;-70
2023/10/06 04:19:48;;;;;;;2.35;1.38;;;10.10;99.90;;;;;;5037857;28;20021;-70
2023/10/06 04:22:14;;;;;;;3.95;1.58;;;10.00;99.90;;;;;;5037814;28;20014;-70
2023/10/06 04:24:40;;;;;;;3.67;1.40;;;10.00;99.90;;;;;;5037966;28;20071;-70
2023/10/06 04:27:06;;;;;;;2.47;1.35;;;10.00;99.90;;;;;;5037560;28;20099;-70
2023/10/06 04:29:35;;;;;;;4.13;1.45;;;10.00;99.90;;;;;;5037638;28;20640;-69
2023/10/06 04:32:01;;;;;;;3.10;1.45;;;9.90;99.90;;;;;;5037785;28;20021;-69
2023/10/06 04:34:27;;;;;;;3.10;1.42;;;9.90;99.90;;;;;;5037684;28;20056;-69
2023/10/06 04:36:56;;;;;;;3.15;1.63;;;9.90;99.90;;;;;;5038726;28;20087;-69
2023/10/06 04:39:23;;;;;;;3.40;1.35;;;9.90;99.90;;;;;;5037686;28;20028;-69
2023/10/06 04:41:49;;;;;;;3.10;1.65;;;9.90;99.90;;;;;;5037196;28;20020;-69
2023/10/06 04:44:14;;;;;;;2.33;1.33;;;9.90;99.90;;;;;;5038233;28;20018;-69
2023/10/06 04:46:40;;;;;;;2.53;1.23;;;9.90;99.90;;;;;;5037998;28;20026;-69
2023/10/06 04:49:07;;;;;;;3.88;1.63;;;9.80;99.90;;;;;;5036882;28;20040;-69
2023/10/06 04:51:34;;;;;;;3.17;1.70;;;9.80;99.90;;;;;;5038198;28;20033;-69
2023/10/06 04:54:00;;;;;;;2.72;1.60;;;9.80;99.90;;;;;;5037935;28;20021;-69
2023/10/06 04:56:32;;;;;;;2.90;1.70;;;9.80;99.90;;;;;;5036635;28;20402;-69
2023/10/06 04:58:57;;;;;;;2.85;1.60;;;9.80;99.90;;;;;;5037750;28;20077;-69
2023/10/06 05:01:23;;;;;;;3.78;1.60;;;9.70;99.90;;;;;;5037674;28;20044;-70
2023/10/06 05:03:49;;;;;;;3.88;1.88;;;9.60;99.90;;;;;;5036424;28;20025;-70
2023/10/06 05:06:16;;;;;;;3.38;1.60;;;9.60;99.90;;;;;;5037811;28;20557;-70
2023/10/06 05:08:46;;;;;;;2.85;1.50;;;9.60;99.90;;;;;;5036752;28;20094;-70
2023/10/06 05:11:13;;;;;;;3.50;1.50;;;9.60;99.90;;;;;;5037277;28;20420;-69
2023/10/06 05:13:40;;;;;;;3.13;1.42;;;9.60;99.90;;;;;;5037361;28;20108;-69
2023/10/06 05:16:05;;;;;;;3.42;1.60;;;9.60;99.90;;;;;;5037671;28;20113;-69
2023/10/06 05:18:33;;;;;;;4.38;1.75;;;9.60;99.90;;;;;;5037748;28;20436;-69
2023/10/06 05:20:58;;;;;;;4.43;1.48;;;9.60;99.90;;;;;;5036178;28;20017;-69
2023/10/06 05:23:26;;;;;;;3.50;1.40;;;9.60;99.90;;;;;;5035716;28;20080;-69
2023/10/06 05:25:52;;;;;;;2.83;1.58;;;9.60;99.90;;;;;;5035917;28;20052;-69
2023/10/06 05:28:18;;;;;;;4.40;1.60;;;9.60;99.90;;;;;;5036783;28;20030;-69
2023/10/06 05:30:45;;;;;;;3.80;1.75;;;9.60;99.90;;;;;;5037122;28;20025;-70
2023/10/06 05:33:11;;;;;;;2.70;1.40;;;9.60;99.90;;;;;;5037351;28;20069;-69
2023/10/06 05:35:41;;;;;;;4.47;1.50;;;9.50;99.90;;;;;;5036631;28;20032;-70
2023/10/06 05:38:08;;;;;;;3.08;1.50;;;9.50;99.90;;;;;;5037046;28;20037;-70
2023/10/06 05:40:37;;;;;;;2.22;1.20;;;9.50;99.90;;;;;;5036454;28;20049;-70
2023/10/06 05:43:04;;;;;;;2.95;1.40;;;9.50;99.90;;;;;;5036550;28;20085;-70
2023/10/06 05:45:30;;;;;;;3.28;1.60;;;9.50;99.90;;;;;;5035485;28;20014;-70
2023/10/06 05:48:06;;;;;;;4.15;1.52;;;9.50;99.90;;;;;;5036970;28;20148;-69
2023/10/06 05:50:35;;;;;;;2.80;1.52;;;9.40;99.90;;;;;;5036460;28;20021;-69
2023/10/06 05:53:22;;;;;;;3.10;1.45;;;9.40;99.90;;;;;;5036742;28;20021;-69
2023/10/06 05:55:49;;;;;;;3.78;2.28;;;9.40;99.90;;;;;;5035594;28;20014;-73
2023/10/06 05:58:16;;;;;;;5.20;1.73;;;9.40;99.90;;;;;;5036161;28;20052;-68
2023/10/06 06:00:50;;;;;;;3.42;1.65;;;9.40;99.90;;;;;;5036249;28;20041;-70
2023/10/06 06:03:20;;;;;;;2.22;1.20;;;9.40;99.90;;;;;;5034759;28;20025;-70
2023/10/06 06:05:47;;;;;;;2.90;1.60;;;9.40;99.90;;;;;;5035452;28;20017;-70
2023/10/06 06:08:14;;;;;;;3.33;1.52;;;9.40;99.90;;;;;;5036099;28;20026;-70
2023/10/06 06:10:40;;;;;;;3.17;1.52;;;9.30;99.90;;;;;;5034030;28;20028;-69
2023/10/06 06:13:06;;;;;;;2.05;1.23;;;9.30;99.90;;;;;;5035545;28;20083;-69
2023/10/06 06:15:32;;;;;;;5.35;1.55;;;9.30;99.90;;;;;;5035712;28;20030;-69
2023/10/06 06:18:01;;;;;;;3.25;1.55;;;9.30;99.90;;;;;;5035695;28;20026;-69
2023/10/06 06:20:28;;;;;;;3.78;1.58;;;9.30;99.90;;;;;;5035697;28;20475;-69
2023/10/06 06:22:55;;;;;;;3.55;1.60;;;9.30;99.90;;;;;;5035233;28;20033;-68
2023/10/06 06:25:23;;;;;;;3.42;1.55;;;9.30;99.90;;;;;;5033559;28;20136;-68
2023/10/06 06:27:50;;;;;;;2.55;1.60;;;9.40;99.90;;;;;;5035410;28;20032;-68
2023/10/06 06:30:19;;;;;;;2.80;1.50;;;9.30;99.90;;;;;;5035915;28;20026;-69
2023/10/06 06:32:48;;;;;;;3.17;1.42;;;9.40;99.90;;;;;;5036172;28;20056;-69
2023/10/06 06:35:14;;;;;;;2.40;1.40;;;9.30;99.90;;;;;;5035580;28;20013;-68
2023/10/06 06:37:42;;;;;;;2.75;1.50;;;9.30;99.90;;;;;;5036458;28;20089;-68
2023/10/06 06:40:10;;;;;;;3.47;1.58;;;9.30;99.90;;;;;;5035696;28;20497;-68
2023/10/06 06:42:36;;;;;;;3.67;1.70;;;9.30;99.90;;;;;;5035996;28;20050;-68
2023/10/06 06:45:03;;;;;;;5.22;1.50;;;9.40;99.90;;;;;;5036072;28;20068;-68
2023/10/06 06:47:29;;;;;;;2.75;1.67;;;9.50;99.90;;;;;;5035498;28;20032;-68
2023/10/06 06:49:55;;;;;;;3.17;1.60;;;9.50;99.90;;;;;;5035827;28;20026;-64
2023/10/06 06:52:21;;;;;;;3.40;1.80;;;9.60;99.90;;;;;;5035697;28;20052;-65
2023/10/06 06:54:48;;;;;;;2.78;1.58;;;9.60;99.90;;;;;;5034834;28;20040;-66
2023/10/06 06:57:17;;;;;;;3.33;1.83;;;9.70;99.90;;;;;;5036018;28;20028;-65
2023/10/06 06:59:44;;;;;;;3.03;1.50;;;9.70;99.90;;;;;;5036006;28;20041;-65
2023/10/06 07:02:10;;;;;;;4.90;1.85;;;9.80;99.90;;;;;;5037777;28;20569;-65
2023/10/06 07:04:36;;;;;;;3.42;1.67;;;9.90;99.90;;;;;;5039004;28;20021;-67
2023/10/06 07:07:02;;;;;;;3.15;1.70;;;9.90;99.90;;;;;;5039043;28;20120;-66
2023/10/06 07:09:27;;;;;;;2.83;1.60;;;10.00;99.90;;;;;;5040232;28;20029;-66
2023/10/06 07:11:57;;;;;;;4.00;1.80;;;10.10;99.90;;;;;;5039991;28;20032;-65
2023/10/06 07:14:22;;;;;;;3.15;1.67;;;10.10;99.90;;;;;;5040264;28;20156;-65
2023/10/06 07:16:48;;;;;;;3.78;1.58;;;10.20;99.90;;;;;;5040261;28;20053;-65
2023/10/06 07:19:14;;;;;;;3.25;1.92;;;10.20;99.90;;;;;;5039973;28;20113;-66
2023/10/06 07:21:43;;;;;;;4.68;1.98;;;10.30;99.90;;;;;;5040285;28;20126;-66
2023/10/06 07:24:13;;;;;;;4.38;1.80;;;10.40;99.90;;;;;;5039977;28;20085;-67
2023/10/06 07:26:42;;;;;;;5.35;1.98;;;10.40;99.90;;;;;;5043094;28;20075;-66
2023/10/06 07:29:08;;;;;;;4.68;1.80;;;10.50;99.90;;;;;;5046590;28;20124;-64
2023/10/06 07:31:34;;;;;;;3.38;1.65;;;10.50;99.90;;;;;;5043453;28;20060;-66
2023/10/06 07:34:03;;;;;;;4.10;1.90;;;10.60;99.90;;;;;;5041618;28;20044;-66
2023/10/06 07:36:29;;;;;;;3.58;1.42;;;10.60;99.90;;;;;;5046121;28;20048;-66
2023/10/06 07:38:54;;;;;;;6.95;2.05;;;10.70;99.90;;;;;;5039792;28;20030;-66
2023/10/06 07:41:25;;;;;;;4.80;1.70;;;10.80;99.90;;;;;;5039148;28;20040;-66
2023/10/06 07:43:51;;;;;;;4.40;2.25;;;10.80;99.90;;;;;;5041548;28;20025;-68
2023/10/06 07:46:17;;;;;;;6.72;2.13;;;10.80;99.90;;;;;;5039575;28;20111;-70
2023/10/06 07:48:47;;;;;;;5.22;2.00;;;10.90;99.90;;;;;;5039592;28;20033;-71
2023/10/06 07:51:13;;;;;;;4.47;1.77;;;11.00;99.90;;;;;;5039414;28;20025;-70
2023/10/06 07:53:39;;;;;;;5.28;2.25;;;11.00;99.90;;;;;;5039169;28;20061;-69
2023/10/06 07:56:09;;;;;;;7.03;2.20;;;11.10;99.90;;;;;;5038813;28;20076;-70
2023/10/06 07:58:41;;;;;;;4.63;2.28;;;11.20;99.90;;;;;;5039237;28;20103;-67
2023/10/06 08:01:08;;;;;;;6.47;2.38;;;11.30;99.90;;;;;;5051289;28;20059;-67
2023/10/06 08:03:38;;;;;;;3.78;2.25;;;11.30;99.90;;;;;;5039462;28;20029;-67
2023/10/06 08:06:10;;;;;;;4.22;2.30;;;11.40;99.90;;;;;;5039121;28;20022;-68
2023/10/06 08:08:37;;;;;;;6.75;2.70;;;11.40;99.90;;;;;;5039295;28;20036;-67
2023/10/06 08:11:05;;;;;;;4.22;2.30;;;11.50;99.90;;;;;;5038772;28;20025;-67
2023/10/06 08:13:33;;;;;;;7.35;2.60;;;11.60;99.90;;;;;;5038798;28;20028;-67
2023/10/06 08:16:00;;;;;;;6.53;2.65;;;11.70;99.90;;;;;;5037745;28;20047;-70
2023/10/06 08:18:30;;;;;;;5.15;2.33;;;11.70;99.90;;;;;;5037686;28;20040;-66
2023/10/06 08:21:03;;;;;;;6.47;2.15;;;11.80;99.90;;;;;;5038861;28;20028;-67
2023/10/06 08:23:30;;;;;;;5.70;2.28;;;11.90;99.90;;;;;;5039095;28;20025;-67
2023/10/06 08:25:57;;;;;;;4.10;2.13;;;11.90;99.90;;;;;;5038380;28;20071;-66
2023/10/06 08:28:24;;;;;;;4.47;1.88;;;12.00;99.90;;;;;;5038900;28;20116;-66
2023/10/06 08:30:50;;;;;;;3.72;2.00;;;12.10;99.90;;;;;;5037142;28;20049;-68
2023/10/06 08:33:16;;;;;;;4.70;2.10;;;12.20;99.90;;;;;;5037891;28;20402;-67
2023/10/06 08:35:41;;;;;;;3.60;1.85;;;12.20;99.90;;;;;;5036913;28;20021;-67
2023/10/06 08:38:10;;;;;;;4.95;2.50;;;12.30;99.90;;;;;;5037952;28;20025;-67
2023/10/06 08:40:41;;;;;;;4.65;2.47;;;12.30;99.90;;;;;;5037192;28;20021;-67
2023/10/06 08:43:07;;;;;;;5.25;2.67;;;12.40;99.90;;;;;;5037725;28;20492;-67
2023/10/06 08:45:41;;;;;;;5.63;2.47;;;12.50;99.90;;;;;;5037708;28;20049;-67
2023/10/06 08:48:11;;;;;;;6.18;2.33;;;12.50;99.90;;;;;;5036285;28;20029;-67
2023/10/06 08:50:37;;;;;;;3.92;2.08;;;12.70;99.90;;;;;;5038003;28;20019;-67
2023/10/06 08:53:09;;;;;;;5.05;2.58;;;12.80;99.90;;;;;;5037754;28;20096;-67
2023/10/06 08:55:40;;;;;;;5.03;2.10;;;12.80;99.90;;;;;;5036004;28;20026;-67
2023/10/06 08:58:13;;;;;;;5.40;2.13;;;12.90;99.90;;;;;;5037467;28;20128;-67
2023/10/06 09:00:40;;;;;;;4.70;2.05;;;12.90;99.90;;;;;;5037729;28;20022;-66
2023/10/06 09:03:09;;;;;;;6.93;2.50;;;13.00;99.90;;;;;;5037498;28;20367;-67
2023/10/06 09:05:38;;;;;;;4.53;2.30;;;13.00;99.90;;;;;;5037199;28;20056;-66
2023/10/06 09:08:09;;;;;;;6.32;2.20;;;13.10;99.90;;;;;;5035054;28;20393;-67
2023/10/06 09:10:40;;;;;;;3.88;1.90;;;13.20;99.90;;;;;;5036441;28;20027;-66
2023/10/06 09:13:16;;;;;;;4.30;2.22;;;13.30;99.90;;;;;;5037201;28;20066;-68
2023/10/06 09:15:43;;;;;;;4.85;2.47;;;13.30;99.90;;;;;;5036974;28;20125;-70
2023/10/06 09:18:20;;;;;;;4.13;2.20;;;13.40;99.90;;;;;;5026758;28;20030;-69
2023/10/06 09:20:47;;;;;;;4.45;2.38;;;13.40;99.90;;;;;;5035641;28;20449;-65
2023/10/06 09:23:31;;;;;;;6.47;2.38;;;13.50;99.90;;;;;;5028595;28;20010;-65
2023/10/06 09:25:58;;;;;;;4.82;2.42;;;13.60;99.90;;;;;;5034060;28;20041;-71
2023/10/06 09:28:24;;;;;;;6.60;2.55;;;13.60;99.90;;;;;;5036724;28;20025;-69
2023/10/06 09:31:02;;;;;;;4.55;2.47;;;13.70;99.90;;;;;;5035580;28;20037;-68
2023/10/06 09:33:37;;;;;;;4.78;2.40;;;13.80;99.90;;;;;;5037129;28;20442;-68
2023/10/06 09:36:08;;;;;;;5.97;2.47;;;13.90;99.90;;;;;;5016523;28;20121;-69
2023/10/06 09:38:41;;;;;;;5.78;2.47;;;14.00;99.90;;;;;;5034620;28;20022;-70
2023/10/06 09:41:09;;;;;;;5.22;2.05;;;14.10;99.90;;;;;;5037074;28;20026;-71
2023/10/06 09:43:38;;;;;;;4.63;2.25;;;14.20;99.90;;;;;;5035873;28;20133;-67
2023/10/06 09:46:08;;;;;;;5.97;2.15;;;14.30;99.90;;;;;;5037345;28;20021;-67
2023/10/06 09:48:42;;;;;;;4.55;1.98;;;14.40;99.90;;;;;;5035842;28;20032;-67
2023/10/06 09:51:10;;;;;;;4.05;2.20;;;14.50;99.90;;;;;;5037415;28;20114;-67
2023/10/06 09:53:38;;;;;;;4.18;2.08;;;14.70;99.90;;;;;;5031148;28;20504;-67
2023/10/06 09:56:11;;;;;;;4.95;1.70;;;14.80;99.90;;;;;;5035805;28;20079;-68
2023/10/06 09:58:38;;;;;;;5.45;1.92;;;14.90;99.90;;;;;;5034090;28;20049;-68
2023/10/06 10:01:05;;;;;;;4.38;1.60;;;14.90;99.90;;;;;;5036023;28;20432;-68
2023/10/06 10:03:34;;;;;;;3.58;1.60;;;15.00;99.90;;;;;;5035482;28;20018;-68
2023/10/06 10:06:04;;;;;;;4.45;2.10;;;15.10;99.90;;;;;;5034432;28;20034;-68
2023/10/06 10:08:32;;;;;;;4.07;1.58;;;15.20;99.90;;;;;;5035499;28;20419;-68
2023/10/06 10:11:01;;;;;;;2.58;1.50;;;15.30;99.90;;;;;;5034032;28;20026;-69
2023/10/06 10:13:53;;;;;;;2.53;1.33;;;15.40;99.90;;;;;;5035535;28;20014;-68
2023/10/06 10:16:48;;;;;;;3.35;1.55;;;15.40;99.90;;;;;;5033874;28;20068;-68
2023/10/06 10:19:22;;;;;;;3.47;1.50;;;15.50;99.90;;;;;;5035570;28;20021;-67
2023/10/06 10:21:48;;;;;;;4.45;1.40;;;15.60;99.90;;;;;;5036523;28;20021;-69
2023/10/06 10:24:19;;;;;;;4.80;1.50;;;15.70;99.90;;;;;;5036564;28;20078;-68
2023/10/06 10:26:52;;;;;;;2.60;1.23;;;15.80;99.90;;;;;;5036062;28;20021;-67
2023/10/06 10:29:18;;;;;;;3.75;1.42;;;15.90;99.90;;;;;;5035402;28;20033;-68
2023/10/06 10:32:06;;;;;;;3.85;1.15;;;16.10;98.90;;;;;;5036534;28;20030;-68
2023/10/06 10:35:12;;;;;;;2.80;1.10;;;16.20;97.60;;;;;;5044953;28;20025;-68
2023/10/06 10:38:02;;;;;;;3.22;1.30;;;16.30;99.30;;;;;;5029616;28;20486;-67
2023/10/06 10:40:46;;;;;;;3.55;1.30;;;16.30;99.10;;;;;;5040389;28;20026;-69
2023/10/06 10:43:14;;;;;;;3.92;1.48;;;16.40;98.80;;;;;;5035442;28;20493;-68
2023/10/06 10:45:44;;;;;;;3.53;1.20;;;16.40;96.20;;;;;;5040624;28;20029;-68
2023/10/06 10:48:14;;;;;;;3.28;1.20;;;16.40;96.80;;;;;;5039968;28;20021;-69
2023/10/06 10:50:56;;;;;;;3.60;1.40;;;16.50;96.70;;;;;;5039087;28;20029;-68
2023/10/06 10:53:22;;;;;;;2.90;1.30;;;16.50;98.20;;;;;;5039619;28;20032;-68
2023/10/06 10:55:48;;;;;;;2.17;1.20;;;16.50;96.00;;;;;;5039348;28;20056;-71
2023/10/06 10:58:45;;;;;;;3.13;1.48;;;16.60;96.00;;;;;;5038706;28;20045;-70
2023/10/06 11:01:38;;;;;;;2.08;1.30;;;16.60;96.90;;;;;;5039178;28;20021;-69
2023/10/06 11:04:21;;;;;;;2.20;1.15;;;16.70;97.40;;;;;;5039620;28;20029;-68
2023/10/06 11:06:50;;;;;;;2.75;1.48;;;16.70;96.10;;;;;;5039686;28;20076;-69
2023/10/06 11:11:58;;;;;;;7.20;5.10;;;16.70;95.40;;;;;;5039551;28;20029;-69
2023/10/06 11:14:26;;;;;;;4.82;2.88;;;16.80;96.00;;;;;;5039416;28;20053;-69
2023/10/06 11:16:54;;;;;;;3.83;2.10;;;16.90;94.50;;;;;;5038126;28;20063;-69
2023/10/06 11:19:19;;;;;;;3.20;1.90;;;16.90;94.70;;;;;;5038919;28;20379;-69
2023/10/06 11:21:47;;;;;;;3.28;1.77;;;17.00;93.10;;;;;;5038105;28;20100;-69
2023/10/06 11:24:24;;;;;;;3.17;1.70;;;17.10;93.40;;;;;;5039518;28;20025;-68
2023/10/06 11:26:51;;;;;;;4.22;1.70;;;17.20;94.70;;;;;;5037677;28;20101;-68
2023/10/06 11:29:31;;;;;;;3.22;1.40;;;17.10;93.70;;;;;;5040032;28;20037;-69
2023/10/06 11:32:01;;;;;;;3.90;1.48;;;17.20;94.70;;;;;;5039658;28;20026;-69
2023/10/06 11:34:27;;;;;;;3.83;1.50;;;17.20;93.10;;;;;;5039656;28;20041;-69
2023/10/06 11:36:59;;;;;;;3.58;1.75;;;17.20;92.10;;;;;;5038934;28;20026;-68
2023/10/06 11:39:32;;;;;;;4.20;1.40;;;17.30;92.40;;;;;;5037074;28;20112;-70
2023/10/06 11:42:25;;;;;;;4.32;1.60;;;17.40;91.60;;;;;;5037019;28;20013;-71
2023/10/06 11:44:59;;;;;;;4.10;1.60;;;17.40;91.80;;;;;;5037734;28;20029;-71
2023/10/06 11:47:28;;;;;;;3.92;1.50;;;17.50;92.40;;;;;;5037076;28;20105;-71
2023/10/06 11:50:01;;;;;;;3.15;1.50;;;17.50;91.70;;;;;;5036667;28;20097;-71
2023/10/06 11:52:27;;;;;;;4.18;1.40;;;17.50;91.60;;;;;;5037310;28;20496;-70
2023/10/06 11:54:54;;;;;;;3.65;1.30;;;17.60;90.70;;;;;;5038842;28;20116;-70
2023/10/06 11:57:46;;;;;;;3.92;1.45;;;17.60;90.50;;;;;;5035838;28;20021;-69
2023/10/06 12:00:15;;;;;;;3.33;1.45;;;17.70;92.30;;;;;;5036359;28;20028;-69
2023/10/06 12:02:53;;;;;;;2.75;1.30;;;17.80;89.20;;;;;;5034854;28;20033;-71
2023/10/06 12:05:21;;;;;;;2.47;1.38;;;17.80;91.20;;;;;;5038518;28;20013;-71
2023/10/06 12:07:47;;;;;;;5.35;1.83;;;17.80;88.10;;;;;;5038594;28;20017;-72
2023/10/06 12:10:17;;;;;;;2.63;1.42;;;17.90;87.10;;;;;;5038548;28;20071;-73
2023/10/06 12:12:50;;;;;;;3.35;1.40;;;18.00;84.00;;;;;;5036417;28;20032;-71
2023/10/06 12:15:16;;;;;;;3.75;1.45;;;18.00;87.50;;;;;;5038388;28;20022;-73
2023/10/06 12:17:43;;;;;;;3.03;1.40;;;18.10;85.80;;;;;;5038405;28;20497;-72
2023/10/06 12:20:13;;;;;;;3.38;1.30;;;18.20;84.70;;;;;;5037015;28;20433;-72
2023/10/06 12:22:43;;;;;;;5.75;2.17;;;18.20;83.30;;;;;;5037085;28;20056;-71
2023/10/06 12:25:11;;;;;;;3.33;1.65;;;18.20;85.40;;;;;;5037918;28;20506;-72
2023/10/06 12:27:43;;;;;;;3.28;1.52;;;18.20;83.40;;;;;;5038073;28;20415;-72
2023/10/06 12:30:10;;;;;;;3.35;1.50;;;18.20;83.00;;;;;;5038166;28;20021;-72
2023/10/06 12:32:36;;;;;;;3.70;1.58;;;18.20;83.90;;;;;;5037847;28;20027;-72
2023/10/06 12:35:08;;;;;;;4.70;1.60;;;18.30;84.90;;;;;;5038525;28;20021;-72
2023/10/06 12:37:40;;;;;;;4.38;1.50;;;18.30;86.10;;;;;;5038029;28;20025;-71
2023/10/06 12:40:08;;;;;;;3.67;1.55;;;18.20;83.70;;;;;;5034340;28;20022;-71
2023/10/06 12:42:42;;;;;;;2.90;1.40;;;18.30;84.70;;;;;;5037142;28;20013;-71
2023/10/06 12:45:17;;;;;;;3.45;1.30;;;18.40;83.00;;;;;;5036107;28;20033;-70
2023/10/06 12:47:50;;;;;;;3.58;1.35;;;18.40;85.40;;;;;;5035261;28;20053;-71
2023/10/06 12:50:19;;;;;;;3.80;1.52;;;18.40;84.70;;;;;;5037019;28;20045;-71
2023/10/06 12:52:52;;;;;;;4.18;1.50;;;18.30;84.30;;;;;;5037405;28;20122;-65
2023/10/06 12:55:23;;;;;;;4.13;1.85;;;18.40;85.20;;;;;;5036868;28;20028;-65
2023/10/06 12:57:50;;;;;;;3.97;1.60;;;18.50;82.60;;;;;;5037249;28;20064;-67
2023/10/06 13:00:17;;;;;;;3.85;1.58;;;18.50;82.90;;;;;;5037686;28;20029;-66
2023/10/06 13:02:43;;;;;;;3.60;1.60;;;18.60;81.70;;;;;;5036736;28;20018;-67
2023/10/06 13:05:13;;;;;;;3.80;1.70;;;18.70;80.60;;;;;;5036647;28;20017;-67